Nashville, TN (JWN)

Redbird FMX


Given the close proximity to downtown Nashville, Tennessee, John Tune (JWN) is a great place for the general aviation enthusiast or for someone learning how to fly. Wings of Eagles Aviation’s office is located in Hangar 1, and is accessible from the road or the ramp. The FBO is open 24 hours a day 7 days a week so there will always be someone available for help or fuel.

Address:
210 Tune Airport Dr.
Nashville, TN 37209

Phone: (615) 979-9222

Business Hours:
Monday-Sunday 7a-10p

Wings JWN

NOAA Weather

Nashville, TN

Last Updated on Aug 21 2017, 12:53 am CDT

Current Conditions: A Few Clouds

NOAA Icon

Temp: 75°F

Wind: North at 0mph

Humidity: 82%

Dewpoint: 69.1°F

Your 5-Day Forecast at a Glance

Available data for KBNA from the past 2 hours
NASHVILLE, TN
Metar
KBNA 210553Z 00000KT 10SM FEW250 24/21 A3013 RMK AO2 SLP195 T02390206 10306 20239 403560222 50004

05:53 UTC

Wind: 0° 0kt

Visibility: 10 SM

Sky: FEW 25000 ft

Temp: 24 deg C / 75.2 deg F

Dewpoint: 21 deg C / 69.8 deg F

Pressure: 30.13 inHg

TAF
KBNA 210520Z 2106/2206 17004KT P6SM SCT050